createdAt,value
2019-03-23T00:00:41.762Z,168.20
2019-03-23T00:03:13.980Z,145.07
2019-03-23T00:05:46.334Z,79.77
2019-03-23T00:08:18.640Z,89.07
2019-03-23T00:10:50.786Z,96.13
2019-03-23T00:13:23.101Z,88.47
2019-03-23T00:15:55.419Z,87.73
2019-03-23T00:18:27.664Z,91.10
2019-03-23T00:20:59.804Z,95.03
2019-03-23T00:23:32.225Z,87.50
2019-03-23T00:26:04.979Z,77.13
2019-03-23T00:28:37.132Z,81.27
2019-03-23T00:31:09.354Z,80.07
2019-03-23T00:33:42.019Z,79.90
2019-03-23T00:36:14.516Z,73.00
2019-03-23T00:38:46.654Z,78.37
2019-03-23T00:41:18.860Z,76.87
2019-03-23T00:43:51.014Z,73.10
2019-03-23T00:46:23.186Z,85.83
2019-03-23T00:48:55.347Z,75.17
2019-03-23T00:51:27.500Z,69.27
2019-03-23T00:53:59.678Z,75.03
2019-03-23T00:56:31.838Z,76.60
2019-03-23T00:59:03.967Z,76.97
2019-03-23T01:01:36.188Z,101.43
2019-03-23T01:04:08.596Z,108.33
2019-03-23T01:06:51.593Z,94.30
2019-03-23T01:09:14.693Z,115.83
2019-03-23T01:11:46.900Z,109.13
2019-03-23T01:14:19.145Z,100.37
2019-03-23T01:16:51.355Z,97.30
2019-03-23T01:19:23.490Z,93.60
2019-03-23T01:21:55.696Z,88.10
2019-03-23T01:24:27.919Z,82.50
2019-03-23T01:27:00.126Z,82.50
2019-03-23T01:29:32.388Z,91.07
2019-03-23T01:32:04.604Z,82.30
2019-03-23T01:34:36.765Z,81.73
2019-03-23T01:37:09.071Z,77.70
2019-03-23T01:39:41.547Z,89.40
2019-03-23T01:42:13.747Z,90.13
2019-03-23T01:44:45.973Z,75.13
2019-03-23T01:47:18.187Z,69.70
2019-03-23T01:49:50.327Z,68.30
2019-03-23T01:52:22.460Z,64.87
2019-03-23T01:54:54.595Z,71.47
2019-03-23T01:57:26.741Z,60.17
2019-03-23T01:59:58.983Z,63.90
2019-03-23T02:02:31.201Z,74.50
2019-03-23T02:05:03.346Z,65.00
2019-03-23T02:07:35.475Z,71.60
2019-03-23T02:10:08.171Z,79.23
2019-03-23T02:12:40.882Z,78.00
2019-03-23T02:15:14.114Z,71.17
2019-03-23T02:17:46.246Z,69.20
2019-03-23T02:20:18.541Z,82.57
2019-03-23T02:22:50.748Z,95.47
2019-03-23T02:25:22.883Z,134.43
2019-03-23T02:27:55.026Z,119.03
2019-03-23T02:30:27.252Z,94.27
2019-03-23T02:32:59.457Z,79.30
2019-03-23T02:35:31.587Z,64.67
2019-03-23T02:38:03.731Z,69.37
2019-03-23T02:40:35.879Z,65.83
2019-03-23T02:43:08.275Z,64.13
2019-03-23T02:45:40.883Z,68.23
2019-03-23T02:48:13.028Z,69.13
2019-03-23T02:50:45.212Z,61.47
2019-03-23T02:53:17.346Z,59.67
2019-03-23T02:55:49.478Z,63.20
2019-03-23T02:58:21.605Z,66.27
2019-03-23T03:00:54.839Z,65.37
2019-03-23T03:03:26.988Z,62.10
2019-03-23T03:05:59.121Z,65.13
2019-03-23T03:08:31.330Z,70.20
2019-03-23T03:11:03.474Z,64.70
2019-03-23T03:13:35.668Z,65.60
2019-03-23T03:16:07.884Z,71.93
2019-03-23T03:18:40.104Z,136.97
2019-03-23T03:21:14.057Z,77.17
2019-03-23T03:23:46.204Z,82.10
2019-03-23T03:26:18.400Z,69.97
2019-03-23T03:28:50.548Z,66.93
2019-03-23T03:31:22.706Z,72.30
2019-03-23T03:33:54.948Z,54.13
2019-03-23T03:36:29.967Z,62.90
2019-03-23T03:39:00.989Z,55.07
2019-03-23T03:41:34.702Z,61.67
2019-03-23T03:44:06.848Z,57.93
2019-03-23T03:46:39.092Z,56.53
2019-03-23T03:49:12.943Z,52.37
2019-03-23T03:51:45.338Z,52.33
2019-03-23T03:54:17.495Z,53.37
2019-03-23T03:56:49.751Z,61.03
2019-03-23T03:59:21.886Z,58.80
2019-03-23T04:01:54.025Z,58.63
2019-03-23T04:04:26.217Z,55.23
2019-03-23T04:06:58.360Z,54.30
2019-03-23T04:09:30.506Z,53.93
2019-03-23T04:12:02.721Z,56.90
2019-03-23T04:14:34.959Z,51.60
2019-03-23T04:17:07.175Z,49.13
2019-03-23T04:19:39.394Z,53.97
2019-03-23T04:22:12.057Z,58.63
2019-03-23T04:24:44.541Z,58.60
2019-03-23T04:27:16.796Z,61.03
2019-03-23T04:29:48.942Z,61.57
2019-03-23T04:32:21.204Z,66.73
2019-03-23T04:34:53.485Z,60.87
2019-03-23T04:37:25.946Z,66.90
2019-03-23T04:39:58.249Z,63.03
2019-03-23T04:42:30.384Z,56.87
2019-03-23T04:45:02.689Z,61.50
2019-03-23T04:47:34.993Z,62.57
2019-03-23T04:50:07.893Z,59.20
2019-03-23T04:52:40.057Z,75.70
2019-03-23T04:55:12.355Z,72.40
2019-03-23T04:57:44.559Z,67.63
2019-03-23T05:00:16.895Z,70.60
2019-03-23T05:02:49.136Z,69.73
2019-03-23T05:05:21.272Z,74.30
2019-03-23T05:07:53.474Z,76.50
2019-03-23T05:10:25.791Z,67.40
2019-03-23T05:12:57.928Z,57.13
2019-03-23T05:15:30.069Z,63.20
2019-03-23T05:18:02.480Z,65.17
2019-03-23T05:20:34.613Z,72.27
2019-03-23T05:23:06.862Z,63.43
2019-03-23T05:25:39.111Z,69.17
2019-03-23T05:28:11.533Z,65.10
2019-03-23T05:30:43.693Z,62.93
2019-03-23T05:33:15.829Z,81.23
2019-03-23T05:35:47.974Z,80.67
2019-03-23T05:38:20.131Z,82.90
2019-03-23T05:40:52.375Z,72.43
2019-03-23T05:43:24.689Z,74.07
2019-03-23T05:45:57.442Z,80.53
2019-03-23T05:48:29.583Z,79.83
2019-03-23T05:51:01.812Z,77.57
2019-03-23T05:53:34.036Z,78.03
2019-03-23T05:56:06.171Z,79.03
2019-03-23T05:58:38.309Z,82.27
2019-03-23T06:01:10.987Z,86.40
2019-03-23T06:03:43.166Z,77.90
2019-03-23T06:06:15.601Z,85.47
2019-03-23T06:08:55.057Z,82.80
2019-03-23T06:11:21.693Z,102.30
2019-03-23T06:13:53.907Z,115.17
2019-03-23T06:16:26.061Z,168.40
2019-03-23T06:18:58.235Z,126.73
2019-03-23T06:21:30.366Z,121.10
2019-03-23T06:24:02.575Z,95.53
2019-03-23T06:26:34.789Z,86.97
2019-03-23T06:29:06.944Z,68.33
2019-03-23T06:31:39.123Z,77.90
2019-03-23T06:34:11.614Z,69.43
2019-03-23T06:36:43.754Z,67.93
2019-03-23T06:39:15.898Z,70.67
2019-03-23T06:41:48.103Z,68.43
2019-03-23T06:44:20.328Z,64.67
2019-03-23T06:46:53.562Z,74.77
2019-03-23T06:49:26.684Z,71.63
2019-03-23T06:51:58.827Z,74.20
2019-03-23T06:54:30.964Z,71.40
2019-03-23T06:57:03.132Z,76.07
2019-03-23T06:59:35.312Z,75.23
2019-03-23T07:02:07.558Z,75.73
2019-03-23T07:04:39.699Z,77.73
2019-03-23T07:07:12.546Z,77.60
2019-03-23T07:09:45.009Z,83.97
2019-03-23T07:12:17.149Z,81.90
2019-03-23T07:14:49.319Z,84.47
2019-03-23T07:17:21.457Z,89.03
2019-03-23T07:19:53.598Z,86.43
2019-03-23T07:22:25.745Z,78.20
2019-03-23T07:24:57.875Z,87.10
2019-03-23T07:27:30.022Z,82.90
2019-03-23T07:30:03.817Z,89.07
2019-03-23T07:32:36.289Z,89.93
2019-03-23T07:35:09.149Z,92.03
2019-03-23T07:37:43.791Z,87.93
2019-03-23T07:40:16.156Z,89.17
2019-03-23T07:42:49.960Z,85.87
2019-03-23T07:45:22.970Z,91.27
2019-03-23T07:47:55.225Z,92.53
2019-03-23T07:50:27.375Z,86.67
2019-03-23T07:52:59.522Z,88.27
2019-03-23T07:55:31.687Z,97.00
2019-03-23T07:58:03.840Z,86.70
2019-03-23T08:00:36.071Z,91.90
2019-03-23T08:03:08.470Z,85.43
2019-03-23T08:05:41.790Z,88.47
2019-03-23T08:08:15.655Z,91.13
2019-03-23T08:10:49.322Z,87.40
2019-03-23T08:13:23.061Z,93.00
2019-03-23T08:15:56.982Z,93.37
2019-03-23T08:18:30.693Z,85.23
2019-03-23T08:21:03.878Z,80.33
2019-03-23T08:23:37.387Z,84.70
2019-03-23T08:26:12.576Z,88.67
2019-03-23T08:28:47.048Z,84.10
2019-03-23T08:31:19.781Z,87.10
2019-03-23T08:33:52.234Z,81.63
2019-03-23T08:36:24.440Z,96.27
2019-03-23T08:38:57.132Z,86.50
2019-03-23T08:41:29.279Z,87.07
2019-03-23T08:44:02.129Z,84.33
2019-03-23T08:46:35.158Z,84.57
2019-03-23T08:49:07.385Z,77.40
2019-03-23T08:51:40.783Z,84.47
2019-03-23T08:54:13.432Z,72.57
2019-03-23T08:56:45.603Z,80.80
2019-03-23T08:59:18.450Z,89.03
2019-03-23T09:01:51.221Z,91.33
2019-03-23T09:04:23.490Z,75.53
2019-03-23T09:06:55.655Z,81.33
2019-03-23T09:09:27.888Z,83.37
2019-03-23T09:12:00.138Z,85.53
2019-03-23T09:14:32.354Z,76.17
2019-03-23T09:17:05.648Z,79.27
2019-03-23T09:19:38.977Z,79.73
2019-03-23T09:22:11.439Z,78.17
2019-03-23T09:24:47.734Z,78.37
2019-03-23T09:27:22.093Z,79.57
2019-03-23T09:29:56.887Z,79.03
2019-03-23T09:32:31.328Z,77.67
2019-03-23T09:35:04.835Z,79.57
2019-03-23T09:37:38.478Z,78.63
2019-03-23T09:40:11.668Z,70.63
2019-03-23T09:42:44.668Z,71.87
2019-03-23T09:45:17.428Z,74.50
2019-03-23T09:47:50.406Z,84.67
2019-03-23T09:50:22.738Z,74.10
2019-03-23T09:52:55.001Z,72.47
2019-03-23T09:55:28.800Z,80.90
2019-03-23T09:58:02.134Z,70.70
2019-03-23T10:00:34.342Z,75.83
2019-03-23T10:03:06.561Z,69.33
2019-03-23T10:05:38.786Z,75.77
2019-03-23T10:08:11.405Z,70.17
2019-03-23T10:10:43.636Z,78.07
2019-03-23T10:13:15.849Z,77.33
2019-03-23T10:15:48.074Z,69.37
2019-03-23T10:18:20.219Z,74.73
2019-03-23T10:20:52.440Z,72.27
2019-03-23T10:23:24.582Z,75.60
2019-03-23T10:25:56.787Z,75.50
2019-03-23T10:28:29.008Z,74.03
2019-03-23T10:31:01.179Z,72.37
2019-03-23T10:33:33.401Z,75.10
2019-03-23T10:36:05.575Z,77.50
2019-03-23T10:38:39.054Z,73.83
2019-03-23T10:41:12.394Z,68.63
2019-03-23T10:43:45.819Z,66.20
2019-03-23T10:46:17.986Z,69.43
2019-03-23T10:48:50.190Z,71.03
2019-03-23T10:51:22.352Z,68.30
2019-03-23T10:53:55.389Z,67.47
2019-03-23T10:56:27.724Z,69.07
2019-03-23T10:58:59.964Z,72.80
2019-03-23T11:01:32.174Z,70.93
2019-03-23T11:04:04.423Z,75.53
2019-03-23T11:06:36.779Z,87.83
2019-03-23T11:09:09.083Z,79.70
2019-03-23T11:11:41.687Z,77.67
2019-03-23T11:14:14.702Z,59.03
2019-03-23T11:16:48.697Z,59.00
2019-03-23T11:19:20.866Z,72.83
2019-03-23T11:21:53.085Z,58.50
2019-03-23T11:24:25.263Z,63.13
2019-03-23T11:26:57.486Z,67.00
2019-03-23T11:29:29.714Z,81.50
2019-03-23T11:32:01.983Z,74.33
2019-03-23T11:34:34.204Z,60.93
2019-03-23T11:37:06.498Z,64.63
2019-03-23T11:39:38.928Z,58.53
2019-03-23T11:42:11.162Z,62.00
2019-03-23T11:44:44.453Z,59.70
2019-03-23T11:47:16.627Z,52.93
2019-03-23T11:49:51.094Z,64.40
2019-03-23T11:52:24.373Z,53.03
2019-03-23T11:54:56.552Z,51.40
2019-03-23T11:57:29.077Z,50.78
2019-03-23T12:00:01.391Z,51.28
2019-03-23T12:02:33.877Z,52.73
2019-03-23T12:05:07.644Z,53.55
2019-03-23T12:07:43.163Z,52.58
2019-03-23T12:10:15.781Z,50.25
2019-03-23T12:12:47.967Z,44.88
2019-03-23T12:15:20.160Z,53.53
2019-03-23T12:17:52.693Z,55.50
2019-03-23T12:20:24.801Z,50.20
2019-03-23T12:22:56.978Z,50.70
2019-03-23T12:25:29.178Z,45.70
2019-03-23T12:28:01.411Z,51.17
2019-03-23T12:30:34.948Z,45.07
2019-03-23T12:33:07.895Z,47.20
2019-03-23T12:35:45.370Z,45.73
2019-03-23T12:38:19.067Z,45.67
2019-03-23T12:40:51.349Z,41.13
2019-03-23T12:43:25.098Z,48.80
2019-03-23T12:45:58.930Z,42.73
2019-03-23T12:48:31.577Z,45.30
2019-03-23T12:51:03.931Z,54.57
2019-03-23T12:53:36.079Z,45.60
2019-03-23T12:56:08.300Z,42.63
2019-03-23T12:58:40.542Z,46.23
2019-03-23T13:01:12.971Z,52.03
2019-03-23T13:03:45.161Z,47.47
2019-03-23T13:06:17.299Z,47.17
2019-03-23T13:08:49.552Z,49.03
2019-03-23T13:11:24.635Z,42.43
2019-03-23T13:13:57.299Z,34.77
2019-03-23T13:16:29.873Z,30.07
2019-03-23T13:19:02.502Z,30.40
2019-03-23T13:21:34.863Z,32.57
2019-03-23T13:24:07.480Z,34.00
2019-03-23T13:26:40.145Z,32.27
2019-03-23T13:29:13.442Z,32.37
2019-03-23T13:31:46.094Z,37.30
2019-03-23T13:34:18.584Z,38.03
2019-03-23T13:36:55.457Z,31.03
2019-03-23T13:39:28.335Z,35.07
2019-03-23T13:42:03.096Z,33.87
2019-03-23T13:44:36.284Z,39.27
2019-03-23T13:47:11.725Z,35.60
2019-03-23T13:49:46.027Z,34.97
2019-03-23T13:52:23.089Z,29.57
2019-03-23T13:54:59.892Z,30.87
2019-03-23T13:57:34.046Z,33.60
2019-03-23T14:00:07.617Z,32.20
2019-03-23T14:02:40.474Z,28.63
2019-03-23T14:05:16.309Z,33.80
2019-03-23T14:07:47.716Z,30.83
2019-03-23T14:10:21.381Z,32.00
2019-03-23T14:12:54.934Z,36.03
2019-03-23T14:15:28.740Z,34.47
2019-03-23T14:18:01.526Z,26.03
2019-03-23T14:20:34.355Z,24.50
2019-03-23T14:23:07.025Z,36.53
2019-03-23T14:25:39.430Z,64.10
2019-03-23T14:28:12.416Z,21.97
2019-03-23T14:30:45.174Z,25.00
2019-03-23T14:33:17.991Z,25.23
2019-03-23T14:35:50.854Z,35.67
2019-03-23T14:38:23.177Z,26.23
2019-03-23T14:40:55.496Z,29.23
2019-03-23T14:43:27.843Z,25.87
2019-03-23T14:46:02.883Z,23.60
2019-03-23T14:48:35.221Z,20.87
2019-03-23T14:51:07.768Z,19.53
2019-03-23T14:53:40.689Z,29.57
2019-03-23T14:56:13.298Z,24.73
2019-03-23T14:58:46.018Z,28.00
2019-03-23T15:01:18.261Z,20.83
2019-03-23T15:03:50.589Z,21.97
2019-03-23T15:06:23.281Z,32.40
2019-03-23T15:08:55.940Z,21.80
2019-03-23T15:11:29.662Z,17.67
2019-03-23T15:14:01.978Z,13.97
2019-03-23T15:16:34.141Z,14.13
2019-03-23T15:19:06.597Z,18.93
2019-03-23T15:21:38.918Z,18.57
2019-03-23T15:24:11.324Z,13.63
2019-03-23T15:26:43.769Z,13.07
2019-03-23T15:29:16.225Z,12.60
2019-03-23T15:31:50.023Z,17.77
2019-03-23T15:34:22.825Z,37.13
2019-03-23T15:36:55.171Z,26.33
2019-03-23T15:39:27.495Z,21.30
2019-03-23T15:42:00.211Z,19.50
2019-03-23T15:44:32.732Z,18.30
2019-03-23T15:47:05.311Z,22.43
2019-03-23T15:49:38.049Z,55.47
2019-03-23T15:52:11.573Z,26.33
2019-03-23T15:54:44.921Z,41.23
2019-03-23T15:57:17.517Z,30.27
2019-03-23T15:59:51.310Z,41.73
2019-03-23T16:02:24.210Z,34.13
2019-03-23T16:04:56.695Z,57.40
2019-03-23T16:07:29.830Z,27.63
2019-03-23T16:10:02.241Z,30.00
2019-03-23T16:12:37.483Z,32.77
2019-03-23T16:15:10.050Z,28.30
2019-03-23T16:17:42.377Z,18.63
2019-03-23T16:20:14.535Z,27.43
2019-03-23T16:22:46.754Z,31.43
2019-03-23T16:25:18.901Z,65.30
2019-03-23T16:27:51.116Z,89.90
2019-03-23T16:30:33.216Z,46.60
2019-03-23T16:33:05.499Z,56.60
2019-03-23T16:35:37.726Z,35.47
2019-03-23T16:38:10.587Z,71.53
2019-03-23T16:40:43.038Z,58.33
2019-03-23T16:43:15.256Z,65.53
2019-03-23T16:45:48.944Z,73.70
2019-03-23T16:48:21.210Z,88.90
2019-03-23T16:50:53.360Z,80.97
2019-03-23T16:53:26.319Z,97.00
2019-03-23T16:56:02.209Z,97.30
2019-03-23T16:58:35.737Z,85.23
2019-03-23T17:01:10.542Z,86.60
2019-03-23T17:03:43.853Z,90.10
2019-03-23T17:06:17.742Z,94.53
2019-03-23T17:08:50.834Z,91.97
2019-03-23T17:11:23.074Z,96.83
2019-03-23T17:13:55.256Z,94.67
2019-03-23T17:16:27.826Z,96.80
2019-03-23T17:19:00.541Z,189.53
2019-03-23T17:21:35.225Z,114.97
2019-03-23T17:24:08.086Z,122.83
2019-03-23T17:26:41.653Z,96.53
2019-03-23T17:29:16.856Z,122.80
2019-03-23T17:31:49.713Z,122.00
2019-03-23T17:34:22.265Z,104.73
2019-03-23T17:36:55.761Z,93.90
2019-03-23T17:39:28.313Z,107.10
2019-03-23T17:42:03.606Z,107.43
2019-03-23T17:44:36.133Z,99.87
2019-03-23T17:47:08.283Z,116.80
2019-03-23T17:49:40.964Z,110.47
2019-03-23T17:52:13.686Z,119.63
2019-03-23T17:54:46.151Z,118.80
2019-03-23T17:57:19.377Z,149.70
2019-03-23T17:59:51.532Z,151.13
2019-03-23T18:02:23.771Z,143.03
2019-03-23T18:04:56.344Z,109.73
2019-03-23T18:07:29.789Z,178.57
2019-03-23T18:10:05.814Z,197.40
2019-03-23T18:12:39.935Z,217.13
2019-03-23T18:15:14.742Z,139.53
2019-03-23T18:17:51.133Z,111.13
2019-03-23T18:20:24.718Z,95.90
2019-03-23T18:23:01.598Z,100.17
2019-03-23T18:25:35.443Z,101.37
2019-03-23T18:28:08.075Z,110.43
2019-03-23T18:30:42.171Z,111.23
2019-03-23T18:33:14.398Z,95.30
2019-03-23T18:35:47.623Z,79.93
2019-03-23T18:38:20.565Z,77.80
2019-03-23T18:40:54.566Z,82.80
2019-03-23T18:43:28.070Z,100.97
2019-03-23T18:46:00.831Z,69.57
2019-03-23T18:48:33.898Z,71.57
2019-03-23T18:51:07.148Z,92.67
2019-03-23T18:53:40.118Z,64.87
2019-03-23T18:56:14.930Z,92.70
2019-03-23T18:58:47.228Z,69.57
2019-03-23T19:01:20.093Z,87.90
2019-03-23T19:03:52.432Z,66.20
2019-03-23T19:06:24.866Z,60.20
2019-03-23T19:08:57.093Z,59.17
2019-03-23T19:11:30.231Z,66.63
2019-03-23T19:14:02.499Z,63.27
2019-03-23T19:16:34.741Z,77.07
2019-03-23T19:19:09.651Z,70.73
2019-03-23T19:21:42.688Z,68.90
2019-03-23T19:24:15.486Z,68.20
2019-03-23T19:26:48.268Z,59.47
2019-03-23T19:29:21.198Z,68.17
2019-03-23T19:31:54.891Z,75.20
2019-03-23T19:34:27.480Z,67.23
2019-03-23T19:37:00.279Z,76.10
2019-03-23T19:39:32.517Z,86.30
2019-03-23T19:42:05.464Z,163.83
2019-03-23T19:44:38.409Z,106.77
2019-03-23T19:47:11.142Z,115.90
2019-03-23T19:49:44.169Z,151.03
2019-03-23T19:52:16.346Z,103.33
2019-03-23T19:54:48.586Z,90.53
2019-03-23T19:57:20.744Z,87.57
2019-03-23T19:59:52.911Z,79.80
2019-03-23T20:02:25.059Z,75.73
2019-03-23T20:04:57.232Z,73.40
2019-03-23T20:07:33.299Z,70.43
2019-03-23T20:10:03.419Z,99.80
2019-03-23T20:12:35.671Z,98.87
2019-03-23T20:15:08.096Z,74.50
2019-03-23T20:17:40.463Z,69.67
2019-03-23T20:20:13.115Z,78.70
2019-03-23T20:22:45.274Z,140.80
2019-03-23T20:25:17.502Z,120.17
2019-03-23T20:27:49.765Z,71.77
2019-03-23T20:30:22.007Z,100.10
2019-03-23T20:32:54.239Z,81.43
2019-03-23T20:35:26.469Z,84.20
2019-03-23T20:37:58.706Z,100.27
2019-03-23T20:40:30.949Z,83.10
2019-03-23T20:43:03.186Z,73.40
2019-03-23T20:45:35.394Z,97.73
2019-03-23T20:48:07.611Z,70.37
2019-03-23T20:50:40.232Z,61.20
2019-03-23T20:53:13.991Z,55.47
2019-03-23T20:55:46.283Z,51.10
2019-03-23T20:58:18.622Z,51.50
2019-03-23T21:00:50.881Z,50.90
2019-03-23T21:03:23.103Z,50.53
2019-03-23T21:05:55.324Z,64.13
2019-03-23T21:08:27.537Z,52.17
2019-03-23T21:10:59.703Z,46.77
2019-03-23T21:13:31.849Z,52.60
2019-03-23T21:16:04.029Z,44.67
2019-03-23T21:18:36.250Z,55.13
2019-03-23T21:21:09.685Z,47.93
2019-03-23T21:23:43.669Z,42.83
2019-03-23T21:26:16.124Z,47.93
2019-03-23T21:28:49.092Z,48.03
2019-03-23T21:31:21.727Z,45.13
2019-03-23T21:33:53.984Z,40.43
2019-03-23T21:36:26.717Z,44.40
2019-03-23T21:38:59.029Z,41.17
2019-03-23T21:41:31.160Z,74.57
2019-03-23T21:44:05.224Z,54.67
2019-03-23T21:46:37.824Z,36.17
2019-03-23T21:49:10.634Z,36.83
2019-03-23T21:51:43.455Z,38.37
2019-03-23T21:54:18.623Z,39.07
2019-03-23T21:56:51.545Z,33.93
2019-03-23T21:59:25.481Z,37.57
2019-03-23T22:01:57.874Z,31.03
2019-03-23T22:04:31.073Z,38.27
2019-03-23T22:07:03.331Z,33.50
2019-03-23T22:09:35.663Z,33.00
2019-03-23T22:12:09.045Z,32.53
2019-03-23T22:14:42.141Z,32.10
2019-03-23T22:17:14.583Z,34.70
2019-03-23T22:19:46.984Z,33.73
2019-03-23T22:22:19.120Z,54.73
2019-03-23T22:24:51.263Z,66.40
2019-03-23T22:27:23.407Z,71.30
2019-03-23T22:29:55.698Z,62.83
2019-03-23T22:32:27.907Z,44.97
2019-03-23T22:35:00.356Z,53.87
2019-03-23T22:37:32.660Z,38.17
2019-03-23T22:40:05.147Z,36.97
2019-03-23T22:42:37.381Z,36.77
2019-03-23T22:45:09.652Z,35.33
2019-03-23T22:47:41.869Z,35.63
2019-03-23T22:50:14.208Z,40.50
2019-03-23T22:52:46.413Z,40.57
2019-03-23T22:55:18.556Z,44.27
2019-03-23T22:57:50.693Z,44.67
2019-03-23T23:00:33.466Z,35.77
2019-03-23T23:03:07.218Z,41.00
2019-03-23T23:05:39.439Z,65.27
2019-03-23T23:08:11.668Z,59.27
2019-03-23T23:10:44.772Z,67.63
2019-03-23T23:13:17.176Z,91.03
2019-03-23T23:15:49.360Z,68.90
2019-03-23T23:18:21.563Z,78.13
2019-03-23T23:20:53.707Z,59.47
2019-03-23T23:23:25.930Z,70.50
2019-03-23T23:25:59.289Z,61.70
2019-03-23T23:28:31.497Z,55.03
2019-03-23T23:31:03.728Z,63.73
2019-03-23T23:33:35.944Z,74.17
2019-03-23T23:36:08.159Z,86.17
2019-03-23T23:38:40.471Z,71.73
2019-03-23T23:41:12.692Z,47.20
2019-03-23T23:43:44.889Z,36.70
2019-03-23T23:46:17.120Z,53.03
2019-03-23T23:48:51.460Z,40.57
2019-03-23T23:51:23.194Z,37.20
2019-03-23T23:53:55.441Z,37.20
2019-03-23T23:56:27.609Z,80.97
2019-03-23T23:58:59.960Z,163.87
